Rock Springs, Wisconsin
Current Conditions -  °F | °C
As of 6:55 AM on Friday 24 Oct 2014 (Local Time) from KC35 Reporting Station
Haze Haze  
Wind Chill: 46°   Ceiling: 300
Heat Index: 46°   Visibility: 0.75mi
Dew Point: 46°   Wind: 3mph
Humidity: 100%   Direction: 180°S
Pressure: 30.03"   Gusts: NA
Location:  43.49°N, 89.92°W
Report Text: KC35 241155Z AUTO 18003KT 3/4SM BR OVC003 08/08 A3003 RMK AO2 70037 T00790079 10085 20077
Loading
Personal Weather Stations






























Interactive Weather Map New forecast layout! Learn more

10-Day Weather Forecast

Advertisements
Track Severe Weather on mobile